Share

Yankton, SD

Gurney Municipal (KYKN) Alt. 1306 ft | 42.92 °N, 97.39 °W | Change Station

Current weather conditions updated 3 minutes ago

Clear
Ciel dégagé
54 ° F
Paraît 54 ° F
N
8
Vent Variable Vent de Sud
Lever du soleil 6:41 AM
Coucher du soleil 8:16 PM
Lune Lune gibbeuse décroissante

Aujourd’hui il est prévu de faire plus chaud qu’hier.

Pression 29.97 pouce
Visibilité 8.0 Miles terrestres
Nuages Ciel dégagé
Point de rosée 39 ° F
Humidité 58%
Précipitations 0.00 pouce
Profondeur de la couche neigeuse Non disponible.
UV 0 sur 16
Pollen 11.00 sur 12
Qualité de l'air Non disponible.
Flu Activity Sporadic
METAR KYKN 191155Z AUTO 17007KT 8SM CLR 12/04 A2997 RMK AO1 10140 20120 52020

More Conditions Fewer Conditions

Pression 29.97 pouce
Visibilité 8.0 Miles terrestres
Nuages Ciel dégagé
Point de rosée 39 ° F
Humidité 58%
Précipitations 0.00 pouce
Profondeur de la couche neigeuse Non disponible.
UV 0 sur 16
Pollen 11.00 sur 12
Qualité de l'air Non disponible.
Flu Activity Sporadic
METAR KYKN 191155Z AUTO 17007KT 8SM CLR 12/04 A2997 RMK AO1 10140 20120 52020

More Conditions Fewer Conditions

10-Day Weather Forecast

Almanac

Astronomie

Apr. 19, 2014 Lever Coucher
Temps réel 06:41 CDT 20:16 CDT
Crépuscule civil 06:11 CDT 20:46 CDT
Crépuscule nautique 05:35 CDT 21:22 CDT
Crépuscule astronomique 04:57 CDT 22:01 CDT
Lune 00:05 CDT 09:57 CDT
Durée de lumière visible 14h 34m
Longueur du jour
13h 35m
Tomorrow will be 2m 43s longer.
Lune gibbeuse décroissante, 80% of the Moon is Illuminated
Aujourd'hui
Lune gibbeuse décroissante
avr 22
Dernier quartier
avr 29
Nouveau
mai 6
Premier quartier
mai 14
Pleine lune

Extrêmes aujourd'hui

State Highs State Lows

Community

  • Bleeding Hearts
    Bleeding Hearts
  • Sunset Silhouettes
    Sunset Silhouettes
  • FL sunset Perico Isle
    FL sunset Perico Isle
  • Cloudy spring view
    Cloudy spring view
  • Old barn
    Old barn

WunderPhotos

Upload Photos

1,702,687 Photos téléchargées !

Nearby

Épaisseur de neige

Station Depth Altitude
North Rapid Creek 20 in 6130 ft
Blind Park 22 in 6890 ft

Températures des eaux côtières

Lieu Température
Aucun rapport de station

Activité sismique

Ville Distance Mag. Time & Date
No recent earthquake activity has been reported nearby.
Minimum magnitude displayed is 2.5.

Stations météo à proximité

Emplacement de la station Température Point de rosée Humidité Vent Precip. Alt. Mise à jour Type
Volin, Volin, SD 55.5 ° F 44 ° F 64% SSE  à  9.0 mph 0.00 pouce / hr 1240 ft 6:58 AM CDT Rapid Fire (temps réel)
NonFedAWOS VERMILLION , Vermillion, SD 55 ° F 39 ° F 54% SSE  à  12 mph 0.00 pouce / hr 1146 ft 6:15 AM CDT MADIS
Scotland, SD, Scotland, SD 54.1 ° F 42 ° F 65% SO  à  5.0 mph 0.00 pouce / hr 1362 ft 6:56 AM CDT Normal

Show More Stations Show Fewer Stations

What do you think?

We're not finished. Please let us know what you like, what you don't like, and what you are still missing.